createdAt,value
2023-10-14T00:02:03.157Z,5.50
2023-10-14T00:04:33.187Z,5.20
2023-10-14T00:07:07.464Z,5.55
2023-10-14T00:09:43.914Z,5.38
2023-10-14T00:12:15.543Z,5.18
2023-10-14T00:14:45.331Z,5.50
2023-10-14T00:17:17.405Z,5.25
2023-10-14T00:19:51.268Z,5.30
2023-10-14T00:22:20.589Z,5.53
2023-10-14T00:24:53.832Z,5.97
2023-10-14T00:27:24.947Z,5.85
2023-10-14T00:30:07.557Z,5.10
2023-10-14T00:32:36.222Z,5.18
2023-10-14T00:35:10.551Z,5.32
2023-10-14T00:37:39.201Z,5.40
2023-10-14T00:40:13.268Z,5.28
2023-10-14T00:42:42.862Z,5.30
2023-10-14T00:45:12.640Z,5.43
2023-10-14T00:47:41.878Z,5.35
2023-10-14T00:50:27.613Z,5.57
2023-10-14T00:52:58.533Z,5.38
2023-10-14T00:55:30.617Z,4.80
2023-10-14T00:58:00.487Z,5.18
2023-10-14T01:00:39.607Z,5.28
2023-10-14T01:03:11.039Z,4.80
2023-10-14T01:05:40.971Z,5.45
2023-10-14T01:08:12.918Z,5.15
2023-10-14T01:10:43.818Z,4.88
2023-10-14T01:13:15.638Z,4.50
2023-10-14T01:15:48.578Z,5.47
2023-10-14T01:18:17.072Z,5.20
2023-10-14T01:20:47.690Z,5.15
2023-10-14T01:23:18.511Z,5.18
2023-10-14T01:25:48.992Z,5.07
2023-10-14T01:28:22.640Z,4.95
2023-10-14T01:31:18.057Z,5.00
2023-10-14T01:33:47.924Z,4.95
2023-10-14T01:36:16.900Z,4.95
2023-10-14T01:38:58.917Z,4.70
2023-10-14T01:41:32.373Z,5.13
2023-10-14T01:44:03.706Z,4.80
2023-10-14T01:46:32.276Z,4.70
2023-10-14T01:49:10.278Z,4.75
2023-10-14T01:51:39.395Z,4.80
2023-10-14T01:54:11.591Z,5.40
2023-10-14T01:56:40.119Z,4.30
2023-10-14T01:59:09.119Z,4.88
2023-10-14T02:01:42.783Z,4.85
2023-10-14T02:04:12.294Z,4.70
2023-10-14T02:06:44.984Z,4.25
2023-10-14T02:09:18.420Z,4.32
2023-10-14T02:11:48.782Z,4.63
2023-10-14T02:14:24.406Z,4.57
2023-10-14T02:16:53.544Z,4.47
2023-10-14T02:19:38.218Z,4.90
2023-10-14T02:22:11.076Z,4.47
2023-10-14T02:24:42.892Z,4.82
2023-10-14T02:27:13.741Z,5.07
2023-10-14T02:29:45.394Z,4.22
2023-10-14T02:32:14.425Z,4.63
2023-10-14T02:34:45.545Z,4.35
2023-10-14T02:37:15.928Z,4.75
2023-10-14T02:39:46.129Z,4.72
2023-10-14T02:42:16.779Z,4.22
2023-10-14T02:44:53.695Z,4.85
2023-10-14T02:47:22.552Z,4.57
2023-10-14T02:49:56.192Z,4.00
2023-10-14T02:52:31.062Z,4.35
2023-10-14T02:55:15.201Z,4.63
2023-10-14T02:57:43.793Z,4.53
2023-10-14T03:00:18.906Z,4.40
2023-10-14T03:02:51.994Z,4.40
2023-10-14T03:08:16.492Z,4.40
2023-10-14T03:10:46.924Z,4.55
2023-10-14T03:13:15.741Z,4.70
2023-10-14T03:15:46.174Z,4.10
2023-10-14T03:18:18.006Z,4.03
2023-10-14T03:21:00.068Z,4.50
2023-10-14T03:23:33.908Z,4.32
2023-10-14T03:26:07.065Z,4.53
2023-10-14T03:28:38.397Z,4.03
2023-10-14T03:31:09.366Z,4.00
2023-10-14T03:33:44.858Z,4.30
2023-10-14T03:36:17.710Z,4.72
2023-10-14T03:38:56.088Z,4.10
2023-10-14T03:41:30.718Z,4.10
2023-10-14T03:44:01.537Z,4.57
2023-10-14T03:46:34.532Z,4.35
2023-10-14T03:49:11.673Z,4.07
2023-10-14T03:51:41.213Z,4.43
2023-10-14T03:54:13.660Z,4.07
2023-10-14T03:56:46.386Z,4.28
2023-10-14T03:59:22.791Z,4.13
2023-10-14T04:01:56.442Z,4.30
2023-10-14T04:04:26.064Z,4.18
2023-10-14T04:07:14.965Z,3.92
2023-10-14T04:09:52.433Z,4.30
2023-10-14T04:12:37.872Z,4.47
2023-10-14T04:15:25.202Z,4.40
2023-10-14T04:17:56.871Z,4.07
2023-10-14T04:20:31.103Z,4.20
2023-10-14T04:23:00.162Z,4.85
2023-10-14T04:25:40.775Z,4.72
2023-10-14T04:28:31.798Z,4.10
2023-10-14T04:31:08.397Z,4.40
2023-10-14T04:33:46.370Z,4.15
2023-10-14T04:39:26.604Z,4.10
2023-10-14T04:42:12.598Z,4.57
2023-10-14T04:44:46.613Z,4.32
2023-10-14T04:47:21.419Z,4.20
2023-10-14T04:49:53.298Z,4.20
2023-10-14T04:52:23.567Z,4.13
2023-10-14T04:54:55.840Z,4.68
2023-10-14T04:57:24.726Z,3.95
2023-10-14T04:59:56.565Z,5.47
2023-10-14T05:02:25.771Z,4.60
2023-10-14T05:04:54.505Z,4.57
2023-10-14T05:07:23.059Z,3.92
2023-10-14T05:10:07.530Z,4.55
2023-10-14T05:12:42.513Z,4.72
2023-10-14T05:15:21.174Z,4.72
2023-10-14T05:17:51.928Z,4.60
2023-10-14T05:20:29.626Z,4.43
2023-10-14T05:22:58.449Z,5.07
2023-10-14T05:25:31.747Z,3.83
2023-10-14T05:28:06.348Z,4.88
2023-10-14T05:30:35.645Z,4.43
2023-10-14T05:33:09.184Z,4.70
2023-10-14T05:35:42.171Z,4.53
2023-10-14T05:38:12.381Z,4.22
2023-10-14T05:40:41.733Z,4.15
2023-10-14T05:43:11.577Z,4.40
2023-10-14T05:45:40.224Z,4.60
2023-10-14T05:48:10.390Z,4.53
2023-10-14T05:50:39.026Z,4.30
2023-10-14T05:53:09.284Z,4.82
2023-10-14T05:55:39.496Z,4.40
2023-10-14T05:58:09.487Z,4.68
2023-10-14T06:00:42.471Z,4.45
2023-10-14T06:03:14.507Z,4.30
2023-10-14T06:05:43.696Z,4.88
2023-10-14T06:08:18.875Z,4.32
2023-10-14T06:10:47.831Z,4.47
2023-10-14T06:13:16.920Z,4.65
2023-10-14T06:15:47.132Z,4.90
2023-10-14T06:18:16.513Z,4.18
2023-10-14T06:20:47.164Z,4.65
2023-10-14T06:23:15.905Z,4.45
2023-10-14T06:25:45.399Z,4.70
2023-10-14T06:28:14.188Z,4.30
2023-10-14T06:30:44.506Z,4.03
2023-10-14T06:33:14.466Z,4.70
2023-10-14T06:35:45.016Z,4.78
2023-10-14T06:38:19.183Z,4.60
2023-10-14T06:40:54.298Z,4.85
2023-10-14T06:43:25.800Z,4.18
2023-10-14T06:45:56.108Z,5.05
2023-10-14T06:48:27.332Z,4.78
2023-10-14T06:50:56.339Z,4.60
2023-10-14T06:53:29.967Z,4.30
2023-10-14T06:55:59.681Z,4.72
2023-10-14T06:58:29.973Z,4.47
2023-10-14T07:01:00.534Z,4.25
2023-10-14T07:03:31.085Z,4.55
2023-10-14T07:06:00.071Z,5.32
2023-10-14T07:08:29.506Z,3.90
2023-10-14T07:10:58.150Z,4.55
2023-10-14T07:13:27.051Z,4.57
2023-10-14T07:15:55.953Z,4.78
2023-10-14T07:18:25.444Z,6.60
2023-10-14T07:21:02.785Z,5.90
2023-10-14T07:23:35.280Z,6.20
2023-10-14T07:26:11.344Z,5.93
2023-10-14T07:28:43.997Z,5.50
2023-10-14T07:31:13.268Z,5.28
2023-10-14T07:33:42.408Z,5.20
2023-10-14T07:36:13.762Z,5.05
2023-10-14T07:38:44.393Z,5.82
2023-10-14T07:41:13.965Z,5.10
2023-10-14T07:43:42.569Z,5.60
2023-10-14T07:46:11.395Z,5.50
2023-10-14T07:48:41.814Z,5.50
2023-10-14T07:51:28.568Z,5.55
2023-10-14T07:53:58.521Z,5.10
2023-10-14T07:56:27.179Z,4.80
2023-10-14T07:58:56.927Z,4.80
2023-10-14T08:01:26.791Z,5.25
2023-10-14T08:03:58.773Z,5.32
2023-10-14T08:06:29.359Z,4.95
2023-10-14T08:08:57.846Z,5.07
2023-10-14T08:11:26.443Z,5.05
2023-10-14T08:13:55.718Z,4.85
2023-10-14T08:16:24.440Z,5.03
2023-10-14T08:18:55.141Z,4.83
2023-10-14T08:21:24.411Z,4.97
2023-10-14T08:23:54.219Z,5.05
2023-10-14T08:26:22.634Z,5.32
2023-10-14T08:28:55.685Z,5.15
2023-10-14T08:31:24.306Z,5.28
2023-10-14T08:33:52.892Z,5.32
2023-10-14T08:36:21.400Z,4.97
2023-10-14T08:38:49.943Z,5.03
2023-10-14T08:41:19.808Z,5.18
2023-10-14T08:43:51.734Z,5.68
2023-10-14T08:46:25.081Z,5.05
2023-10-14T08:48:54.521Z,4.72
2023-10-14T08:51:23.277Z,5.03
2023-10-14T08:53:54.556Z,5.47
2023-10-14T08:56:26.317Z,6.00
2023-10-14T08:58:56.734Z,5.53
2023-10-14T09:01:25.944Z,5.43
2023-10-14T09:03:53.696Z,5.75
2023-10-14T09:06:22.573Z,5.35
2023-10-14T09:08:56.063Z,5.65
2023-10-14T09:11:34.445Z,5.57
2023-10-14T09:14:05.174Z,5.63
2023-10-14T09:16:35.792Z,6.03
2023-10-14T09:19:06.753Z,5.47
2023-10-14T09:21:45.173Z,6.03
2023-10-14T09:24:13.724Z,5.28
2023-10-14T09:26:45.964Z,5.28
2023-10-14T09:29:14.500Z,5.40
2023-10-14T09:31:48.144Z,5.55
2023-10-14T09:34:24.971Z,5.60
2023-10-14T09:36:56.748Z,6.07
2023-10-14T09:39:29.721Z,5.85
2023-10-14T09:41:59.901Z,5.28
2023-10-14T09:44:28.420Z,5.68
2023-10-14T09:46:57.346Z,6.35
2023-10-14T09:49:26.347Z,7.40
2023-10-14T09:51:55.325Z,7.18
2023-10-14T09:54:25.019Z,8.13
2023-10-14T09:56:54.177Z,6.95
2023-10-14T09:59:24.645Z,7.15
2023-10-14T10:01:54.891Z,8.00
2023-10-14T10:04:26.990Z,7.13
2023-10-14T10:07:03.486Z,7.57
2023-10-14T10:09:50.904Z,8.30
2023-10-14T10:12:21.842Z,8.35
2023-10-14T10:14:59.482Z,7.65
2023-10-14T10:17:28.406Z,7.63
2023-10-14T10:20:14.451Z,8.02
2023-10-14T10:22:46.280Z,8.45
2023-10-14T10:25:18.146Z,7.60
2023-10-14T10:27:51.000Z,8.00
2023-10-14T10:30:21.886Z,8.02
2023-10-14T10:32:51.966Z,8.27
2023-10-14T10:35:20.849Z,7.50
2023-10-14T10:37:53.004Z,8.20
2023-10-14T10:40:28.184Z,7.82
2023-10-14T10:42:58.354Z,8.20
2023-10-14T10:45:32.122Z,8.60
2023-10-14T10:48:04.670Z,8.32
2023-10-14T10:50:37.467Z,8.02
2023-10-14T10:53:20.829Z,8.57
2023-10-14T10:55:53.064Z,7.35
2023-10-14T10:58:23.341Z,7.85
2023-10-14T11:00:53.535Z,7.72
2023-10-14T11:03:25.117Z,7.53
2023-10-14T11:05:54.811Z,7.53
2023-10-14T11:08:24.290Z,7.72
2023-10-14T11:10:52.935Z,7.43
2023-10-14T11:13:21.573Z,7.18
2023-10-14T11:15:51.801Z,7.43
2023-10-14T11:18:37.742Z,7.25
2023-10-14T11:21:07.489Z,7.90
2023-10-14T11:23:40.649Z,6.90
2023-10-14T11:26:12.874Z,7.05
2023-10-14T11:28:46.507Z,6.35
2023-10-14T11:31:15.600Z,7.03
2023-10-14T11:33:48.202Z,6.78
2023-10-14T11:36:19.415Z,7.53
2023-10-14T11:38:49.553Z,6.25
2023-10-14T11:41:19.257Z,6.90
2023-10-14T11:43:48.090Z,6.72
2023-10-14T11:46:18.413Z,6.82
2023-10-14T11:48:49.745Z,6.95
2023-10-14T11:51:21.274Z,7.15
2023-10-14T11:53:54.183Z,6.13
2023-10-14T11:56:22.801Z,6.63
2023-10-14T11:58:54.616Z,6.55
2023-10-14T12:01:25.982Z,7.18
2023-10-14T12:03:56.226Z,6.85
2023-10-14T12:06:24.972Z,7.03
2023-10-14T12:08:54.651Z,7.28
2023-10-14T12:11:23.417Z,6.40
2023-10-14T12:13:52.780Z,6.82
2023-10-14T12:16:22.852Z,6.55
2023-10-14T12:18:56.174Z,6.60
2023-10-14T12:21:27.496Z,6.95
2023-10-14T12:24:01.914Z,7.63
2023-10-14T12:26:38.861Z,6.88
2023-10-14T12:29:11.533Z,7.20
2023-10-14T12:31:45.244Z,7.28
2023-10-14T12:34:14.886Z,7.80
2023-10-14T12:36:46.392Z,7.00
2023-10-14T12:39:23.414Z,7.47
2023-10-14T12:41:54.514Z,7.30
2023-10-14T12:44:23.191Z,7.70
2023-10-14T12:46:51.712Z,7.22
2023-10-14T12:49:24.581Z,7.03
2023-10-14T12:52:02.447Z,7.80
2023-10-14T12:54:35.967Z,7.32
2023-10-14T12:57:05.696Z,7.53
2023-10-14T12:59:34.701Z,7.18
2023-10-14T13:02:05.056Z,7.65
2023-10-14T13:04:35.253Z,8.02
2023-10-14T13:07:09.670Z,7.65
2023-10-14T13:09:39.930Z,7.88
2023-10-14T13:12:17.627Z,7.38
2023-10-14T13:14:46.585Z,7.93
2023-10-14T13:17:15.272Z,7.72
2023-10-14T13:19:43.976Z,7.43
2023-10-14T13:22:16.040Z,7.60
2023-10-14T13:24:51.006Z,7.53
2023-10-14T13:27:20.133Z,7.70
2023-10-14T13:29:48.594Z,7.70
2023-10-14T13:32:18.441Z,7.72
2023-10-14T13:34:47.227Z,8.05
2023-10-14T13:37:17.233Z,7.78
2023-10-14T13:39:46.633Z,8.10
2023-10-14T13:42:15.130Z,8.00
2023-10-14T13:44:43.570Z,7.78
2023-10-14T13:47:12.229Z,7.75
2023-10-14T13:49:43.986Z,7.45
2023-10-14T13:52:15.980Z,7.88
2023-10-14T13:54:46.090Z,8.07
2023-10-14T13:57:19.208Z,7.90
2023-10-14T13:59:47.861Z,8.13
2023-10-14T14:02:16.672Z,7.75
2023-10-14T14:04:46.185Z,7.00
2023-10-14T14:07:15.015Z,7.20
2023-10-14T14:09:43.514Z,7.50
2023-10-14T14:12:13.499Z,6.88
2023-10-14T14:14:41.942Z,6.68
2023-10-14T14:17:14.296Z,6.93
2023-10-14T14:19:43.051Z,7.40
2023-10-14T14:22:13.106Z,6.63
2023-10-14T14:24:43.772Z,6.80
2023-10-14T14:27:13.763Z,7.05
2023-10-14T14:29:43.673Z,7.03
2023-10-14T14:34:40.718Z,6.72
2023-10-14T14:37:09.679Z,6.97
2023-10-14T14:39:41.316Z,6.63
2023-10-14T14:42:11.897Z,6.80
2023-10-14T14:44:43.346Z,6.63
2023-10-14T14:47:15.901Z,7.35
2023-10-14T14:49:44.755Z,6.93
2023-10-14T14:52:13.541Z,6.82
2023-10-14T14:54:42.789Z,6.82
2023-10-14T14:57:11.322Z,7.30
2023-10-14T14:59:41.532Z,6.93
2023-10-14T15:02:10.244Z,7.57
2023-10-14T15:04:39.508Z,6.22
2023-10-14T15:07:08.131Z,7.88
2023-10-14T15:09:38.029Z,10.63
2023-10-14T15:12:06.623Z,16.52
2023-10-14T15:14:35.112Z,15.07
2023-10-14T15:17:05.587Z,12.23
2023-10-14T15:19:35.058Z,14.52
2023-10-14T15:22:07.626Z,12.95
2023-10-14T15:24:37.249Z,11.95
2023-10-14T15:27:09.233Z,10.90
2023-10-14T15:29:37.717Z,10.70
2023-10-14T15:32:09.621Z,9.73
2023-10-14T15:34:38.244Z,10.48
2023-10-14T15:37:06.761Z,8.90
2023-10-14T15:39:35.517Z,9.85
2023-10-14T15:42:04.150Z,8.70
2023-10-14T15:44:32.820Z,9.10
2023-10-14T15:47:02.462Z,7.78
2023-10-14T15:49:37.623Z,7.90
2023-10-14T15:52:06.971Z,7.20
2023-10-14T15:54:35.776Z,6.93
2023-10-14T15:57:06.006Z,6.25
2023-10-14T15:59:34.762Z,6.63
2023-10-14T16:02:04.045Z,6.97
2023-10-14T16:04:35.876Z,6.05
2023-10-14T16:07:04.639Z,5.60
2023-10-14T16:09:33.344Z,5.05
2023-10-14T16:12:04.719Z,5.00
2023-10-14T16:14:33.357Z,5.38
2023-10-14T16:17:02.251Z,4.53
2023-10-14T16:19:31.726Z,4.10
2023-10-14T16:22:02.695Z,4.32
2023-10-14T16:24:31.264Z,3.78
2023-10-14T16:26:59.689Z,3.58
2023-10-14T16:29:29.877Z,3.88
2023-10-14T16:31:58.557Z,4.18
2023-10-14T16:34:29.439Z,4.18
2023-10-14T16:36:58.219Z,3.22
2023-10-14T16:39:28.340Z,2.90
2023-10-14T16:41:57.173Z,4.13
2023-10-14T16:44:25.630Z,3.88
2023-10-14T16:46:55.325Z,4.38
2023-10-14T16:49:25.069Z,4.15
2023-10-14T16:51:54.430Z,4.32
2023-10-14T16:54:22.919Z,4.32
2023-10-14T16:56:53.773Z,4.57
2023-10-14T16:59:24.703Z,4.95
2023-10-14T17:01:53.575Z,5.13
2023-10-14T17:04:22.194Z,5.95
2023-10-14T17:06:53.202Z,5.05
2023-10-14T17:09:25.653Z,5.57
2023-10-14T17:11:55.999Z,6.00
2023-10-14T17:14:30.133Z,6.32
2023-10-14T17:16:58.807Z,5.53
2023-10-14T17:19:27.511Z,6.20
2023-10-14T17:21:55.970Z,6.40
2023-10-14T17:24:24.577Z,6.05
2023-10-14T17:26:55.760Z,7.00
2023-10-14T17:29:26.094Z,6.35
2023-10-14T17:31:57.115Z,7.43
2023-10-14T17:34:25.967Z,7.03
2023-10-14T17:36:54.555Z,7.70
2023-10-14T17:39:23.167Z,6.95
2023-10-14T17:41:51.797Z,7.10
2023-10-14T17:44:21.143Z,8.45
2023-10-14T17:46:51.392Z,7.65
2023-10-14T17:49:19.997Z,7.70
2023-10-14T17:51:49.873Z,7.82
2023-10-14T17:54:18.403Z,8.60
2023-10-14T17:56:46.780Z,8.45
2023-10-14T17:59:16.214Z,9.45
2023-10-14T18:01:46.196Z,8.38
2023-10-14T18:04:17.024Z,8.45
2023-10-14T18:06:45.547Z,9.40
2023-10-14T18:09:16.186Z,9.98
2023-10-14T18:11:45.872Z,9.18
2023-10-14T18:14:16.297Z,10.00
2023-10-14T18:17:00.679Z,8.85
2023-10-14T18:19:33.619Z,9.55
2023-10-14T18:22:02.122Z,10.43
2023-10-14T18:24:34.109Z,10.70
2023-10-14T18:27:02.909Z,12.27
2023-10-14T18:29:33.344Z,11.55
2023-10-14T18:32:01.915Z,11.43
2023-10-14T18:34:30.564Z,11.45
2023-10-14T18:37:00.375Z,12.77
2023-10-14T18:39:28.813Z,11.30
2023-10-14T18:41:57.360Z,11.73
2023-10-14T18:44:28.224Z,11.90
2023-10-14T18:46:58.175Z,14.23
2023-10-14T18:49:26.896Z,13.98
2023-10-14T18:51:56.203Z,15.57
2023-10-14T18:54:32.855Z,16.65
2023-10-14T18:57:02.111Z,18.88
2023-10-14T18:59:31.329Z,16.20
2023-10-14T19:02:00.363Z,12.13
2023-10-14T19:04:29.083Z,12.18
2023-10-14T19:06:57.564Z,31.30
2023-10-14T19:09:27.614Z,30.92
2023-10-14T19:11:56.030Z,33.35
2023-10-14T19:14:38.054Z,30.98
2023-10-14T19:17:16.517Z,36.53
2023-10-14T19:19:45.549Z,37.05
2023-10-14T19:22:14.214Z,37.88
2023-10-14T19:24:45.424Z,40.83
2023-10-14T19:27:14.105Z,44.00
2023-10-14T19:29:42.522Z,46.22
2023-10-14T19:32:11.871Z,47.40
2023-10-14T19:34:40.516Z,48.20
2023-10-14T19:37:10.857Z,53.38
2023-10-14T19:39:39.390Z,53.05
2023-10-14T19:42:09.895Z,42.15
2023-10-14T19:44:39.169Z,46.70
2023-10-14T19:47:07.842Z,44.08
2023-10-14T19:49:51.079Z,46.15
2023-10-14T19:52:21.104Z,48.05
2023-10-14T19:54:50.293Z,51.50
2023-10-14T19:57:20.285Z,52.42
2023-10-14T19:59:48.802Z,55.33
2023-10-14T20:02:18.017Z,56.90
2023-10-14T20:04:47.047Z,55.60
2023-10-14T20:07:15.651Z,60.70
2023-10-14T20:09:44.121Z,63.67
2023-10-14T20:12:12.638Z,61.05
2023-10-14T20:14:42.610Z,61.05
2023-10-14T20:17:11.187Z,60.92
2023-10-14T20:19:39.757Z,65.60
2023-10-14T20:22:08.265Z,71.68
2023-10-14T20:24:36.961Z,76.82
2023-10-14T20:27:06.567Z,77.97
2023-10-14T20:29:38.870Z,77.63
2023-10-14T20:32:08.997Z,66.30
2023-10-14T20:34:37.489Z,67.00
2023-10-14T20:37:05.980Z,75.15
2023-10-14T20:39:34.480Z,69.60
2023-10-14T20:42:04.065Z,73.72
2023-10-14T20:44:33.880Z,73.63
2023-10-14T20:47:02.563Z,72.07
2023-10-14T20:49:32.872Z,68.93
2023-10-14T20:52:01.791Z,70.30
2023-10-14T20:54:30.449Z,72.45
2023-10-14T20:56:59.192Z,75.00
2023-10-14T20:59:27.837Z,73.00
2023-10-14T21:01:56.381Z,74.38
2023-10-14T21:04:25.348Z,76.63
2023-10-14T21:06:55.723Z,77.93
2023-10-14T21:09:25.052Z,75.28
2023-10-14T21:11:53.964Z,74.65
2023-10-14T21:14:22.953Z,75.80
2023-10-14T21:16:51.921Z,74.38
2023-10-14T21:19:26.932Z,71.93
2023-10-14T21:21:57.785Z,70.90
2023-10-14T21:24:26.715Z,72.10
2023-10-14T21:26:55.407Z,69.80
2023-10-14T21:29:24.092Z,66.45
2023-10-14T21:31:53.001Z,64.10
2023-10-14T21:34:21.883Z,63.90
2023-10-14T21:36:52.966Z,60.97
2023-10-14T21:39:23.444Z,58.28
2023-10-14T21:41:52.177Z,60.22
2023-10-14T21:44:21.001Z,60.88
2023-10-14T21:46:49.760Z,59.13
2023-10-14T21:49:18.847Z,59.15
2023-10-14T21:51:47.695Z,55.35
2023-10-14T21:54:17.301Z,55.13
2023-10-14T21:56:47.477Z,53.25
2023-10-14T21:59:16.367Z,52.28
2023-10-14T22:01:46.244Z,51.17
2023-10-14T22:04:16.225Z,55.45
2023-10-14T22:06:49.067Z,55.13
2023-10-14T22:09:19.456Z,52.97
2023-10-14T22:11:51.019Z,52.83
2023-10-14T22:14:19.806Z,49.28
2023-10-14T22:16:48.838Z,51.05
2023-10-14T22:19:17.531Z,47.35
2023-10-14T22:21:46.304Z,47.35
2023-10-14T22:24:15.415Z,48.95
2023-10-14T22:26:44.148Z,49.95
2023-10-14T22:29:14.227Z,48.08
2023-10-14T22:31:42.904Z,62.83
2023-10-14T22:34:12.319Z,60.85
2023-10-14T22:36:40.778Z,69.97
2023-10-14T22:39:14.243Z,66.82
2023-10-14T22:41:45.287Z,65.40
2023-10-14T22:44:16.091Z,64.30
2023-10-14T22:46:45.815Z,61.33
2023-10-14T22:49:14.596Z,60.85
2023-10-14T22:51:43.645Z,59.78
2023-10-14T22:54:13.152Z,61.75
2023-10-14T22:56:41.609Z,58.85
2023-10-14T22:59:11.640Z,55.15
2023-10-14T23:01:41.554Z,57.97
2023-10-14T23:04:10.227Z,57.35
2023-10-14T23:06:38.732Z,52.88
2023-10-14T23:09:09.133Z,54.05
2023-10-14T23:11:39.620Z,54.15
2023-10-14T23:14:08.609Z,52.45
2023-10-14T23:16:38.949Z,53.35
2023-10-14T23:19:11.675Z,53.53
2023-10-14T23:21:40.156Z,52.50
2023-10-14T23:24:09.110Z,51.33
2023-10-14T23:26:37.616Z,48.75
2023-10-14T23:29:07.490Z,49.65
2023-10-14T23:31:37.563Z,50.75
2023-10-14T23:34:06.868Z,48.78
2023-10-14T23:36:36.675Z,49.25
2023-10-14T23:39:05.751Z,48.25
2023-10-14T23:41:34.161Z,48.80
2023-10-14T23:44:05.349Z,46.53
2023-10-14T23:46:33.990Z,47.58
2023-10-14T23:49:03.214Z,48.25
2023-10-14T23:51:31.764Z,45.85
2023-10-14T23:54:10.304Z,45.63
2023-10-14T23:56:38.943Z,46.47
2023-10-14T23:59:07.397Z,45.35
